createdAt,value
2022-08-23T00:01:47.822Z,17.30
2022-08-23T00:06:42.485Z,17.10
2022-08-23T00:11:40.265Z,17.30
2022-08-23T00:16:35.801Z,17.30
2022-08-23T00:21:30.211Z,17.10
2022-08-23T00:26:23.761Z,17.00
2022-08-23T00:31:18.718Z,16.90
2022-08-23T00:36:13.496Z,16.90
2022-08-23T00:41:07.283Z,16.90
2022-08-23T00:46:52.887Z,16.70
2022-08-23T00:51:57.585Z,16.60
2022-08-23T00:56:52.678Z,16.60
2022-08-23T01:01:46.293Z,16.80
2022-08-23T01:06:56.667Z,16.70
2022-08-23T01:11:59.662Z,16.80
2022-08-23T01:17:01.585Z,16.60
2022-08-23T01:22:06.173Z,16.40
2022-08-23T01:27:35.847Z,16.30
2022-08-23T01:32:29.881Z,16.10
2022-08-23T01:37:23.788Z,16.10
2022-08-23T01:42:17.433Z,16.20
2022-08-23T01:47:12.581Z,16.10
2022-08-23T01:52:06.017Z,16.10
2022-08-23T01:57:00.205Z,16.10
2022-08-23T02:01:53.969Z,16.00
2022-08-23T02:06:48.787Z,16.10
2022-08-23T02:11:44.244Z,15.90
2022-08-23T02:16:41.727Z,15.90
2022-08-23T02:21:36.896Z,15.90
2022-08-23T02:26:31.691Z,15.90
2022-08-23T02:31:26.192Z,16.00
2022-08-23T02:41:18.726Z,16.00
2022-08-23T02:46:13.793Z,15.80
2022-08-23T02:51:09.729Z,15.70
2022-08-23T02:56:03.487Z,15.50
2022-08-23T03:00:56.994Z,15.60
2022-08-23T03:05:52.068Z,15.60
2022-08-23T03:10:46.273Z,15.60
2022-08-23T03:15:40.355Z,15.70
2022-08-23T03:20:34.295Z,15.50
2022-08-23T03:25:30.016Z,15.40
2022-08-23T03:30:23.384Z,15.50
2022-08-23T03:35:16.770Z,15.50
2022-08-23T03:40:12.037Z,15.20
2022-08-23T03:45:08.241Z,15.20
2022-08-23T03:50:01.683Z,15.30
2022-08-23T03:54:55.003Z,15.30
2022-08-23T03:59:48.956Z,15.30
2022-08-23T04:04:43.897Z,15.20
2022-08-23T04:09:37.236Z,15.40
2022-08-23T04:14:30.701Z,15.50
2022-08-23T04:19:24.296Z,15.60
2022-08-23T04:24:20.023Z,15.40
2022-08-23T04:29:23.111Z,15.30
2022-08-23T04:34:28.770Z,15.20
2022-08-23T04:39:23.561Z,15.20
2022-08-23T04:44:17.295Z,15.20
2022-08-23T04:49:11.544Z,15.20
2022-08-23T04:54:05.386Z,15.20
2022-08-23T04:59:00.152Z,15.30
2022-08-23T05:03:53.573Z,15.20
2022-08-23T05:08:48.770Z,15.30
2022-08-23T05:13:42.592Z,15.30
2022-08-23T05:18:37.353Z,15.40
2022-08-23T05:23:31.849Z,15.30
2022-08-23T05:28:30.250Z,15.40
2022-08-23T05:33:23.991Z,15.60
2022-08-23T05:38:20.906Z,15.80
2022-08-23T05:43:14.510Z,15.90
2022-08-23T05:48:07.860Z,15.90
2022-08-23T05:53:01.619Z,16.00
2022-08-23T05:57:56.412Z,16.20
2022-08-23T06:02:51.198Z,16.20
2022-08-23T06:07:44.551Z,16.20
2022-08-23T06:12:37.941Z,16.30
2022-08-23T06:17:33.087Z,16.40
2022-08-23T06:22:26.508Z,16.50
2022-08-23T06:27:19.848Z,16.60
2022-08-23T06:32:13.340Z,16.70
2022-08-23T06:37:11.163Z,16.80
2022-08-23T06:42:36.449Z,16.90
2022-08-23T06:47:23.755Z,16.90
2022-08-23T06:52:18.559Z,16.90
2022-08-23T06:57:13.010Z,17.00
2022-08-23T07:02:09.832Z,17.00
2022-08-23T07:07:07.132Z,17.20
2022-08-23T07:12:07.196Z,17.30
2022-08-23T07:17:03.566Z,17.30
2022-08-23T07:21:57.681Z,17.40
2022-08-23T07:26:53.011Z,17.60
2022-08-23T07:31:51.518Z,17.70
2022-08-23T07:36:47.879Z,18.00
2022-08-23T07:41:41.595Z,18.20
2022-08-23T07:46:36.320Z,18.40
2022-08-23T07:51:33.918Z,18.50
2022-08-23T07:56:27.239Z,18.80
2022-08-23T08:01:24.108Z,18.80
2022-08-23T08:06:22.646Z,18.90
2022-08-23T08:11:22.112Z,19.20
2022-08-23T08:16:27.254Z,19.60
2022-08-23T08:21:20.660Z,19.90
2022-08-23T08:26:14.373Z,20.20
2022-08-23T08:31:10.734Z,20.30
2022-08-23T08:36:05.295Z,20.50
2022-08-23T08:41:10.814Z,20.80
2022-08-23T08:46:14.234Z,20.90
2022-08-23T08:51:27.161Z,21.20
2022-08-23T08:56:32.405Z,21.30
2022-08-23T09:01:42.455Z,21.10
2022-08-23T09:07:04.324Z,21.30
2022-08-23T09:12:17.441Z,21.50
2022-08-23T09:17:29.864Z,21.50
2022-08-23T09:22:54.695Z,21.70
2022-08-23T09:28:05.256Z,22.00
2022-08-23T09:33:25.985Z,22.30
2022-08-23T09:38:43.840Z,22.50
2022-08-23T09:44:02.869Z,22.60
2022-08-23T09:49:46.336Z,22.80
2022-08-23T09:55:22.498Z,22.90
2022-08-23T10:01:01.257Z,23.10
2022-08-23T10:11:47.190Z,23.40
2022-08-23T10:29:53.652Z,23.80
2022-08-23T10:35:26.204Z,23.90
2022-08-23T10:40:29.863Z,23.90
2022-08-23T10:45:30.706Z,24.00
2022-08-23T10:50:24.508Z,24.00
2022-08-23T10:55:39.248Z,24.00
2022-08-23T11:00:36.050Z,24.00
2022-08-23T11:05:35.431Z,24.10
2022-08-23T11:10:56.147Z,24.00
2022-08-23T11:16:00.787Z,24.20
2022-08-23T11:21:07.670Z,24.20
2022-08-23T11:26:03.934Z,24.20
2022-08-23T11:31:21.192Z,24.30
2022-08-23T11:36:23.280Z,24.50
2022-08-23T11:41:33.360Z,24.60
2022-08-23T11:46:52.281Z,24.70
2022-08-23T11:52:21.235Z,24.80
2022-08-23T11:57:58.423Z,24.80
2022-08-23T12:03:46.038Z,25.00
2022-08-23T12:09:25.845Z,25.00
2022-08-23T12:15:12.029Z,24.90
2022-08-23T12:20:29.050Z,24.90
2022-08-23T12:25:42.580Z,24.90
2022-08-23T12:31:08.233Z,24.90
2022-08-23T12:38:12.377Z,24.70
2022-08-23T12:42:20.053Z,24.70
2022-08-23T12:48:12.017Z,24.60
2022-08-23T12:59:41.110Z,24.60
2022-08-23T13:04:43.201Z,24.60
2022-08-23T13:10:34.157Z,24.50
2022-08-23T13:15:58.355Z,24.50
2022-08-23T13:21:42.353Z,24.40
2022-08-23T13:26:58.581Z,24.30
2022-08-23T13:32:03.109Z,24.20
2022-08-23T13:37:05.376Z,24.20
2022-08-23T13:42:26.870Z,24.10
2022-08-23T13:48:28.519Z,24.00
2022-08-23T13:53:47.191Z,24.00
2022-08-23T13:58:44.370Z,24.10
2022-08-23T14:03:49.696Z,24.10
2022-08-23T14:14:58.351Z,24.10
2022-08-23T14:21:57.524Z,24.20
2022-08-23T14:27:29.961Z,24.20
2022-08-23T14:32:25.663Z,24.30
2022-08-23T14:49:39.425Z,24.30
2022-08-23T15:14:24.688Z,24.20
2022-08-23T15:27:10.879Z,24.40
2022-08-23T15:32:06.497Z,24.40
2022-08-23T15:37:11.244Z,24.30
2022-08-23T15:43:07.685Z,24.30
2022-08-23T15:48:17.108Z,24.20
2022-08-23T15:53:16.933Z,24.20
2022-08-23T15:58:18.133Z,24.20
2022-08-23T16:03:24.217Z,24.20
2022-08-23T16:08:24.751Z,24.20
2022-08-23T16:13:18.320Z,24.20
2022-08-23T16:18:16.068Z,24.30
2022-08-23T16:23:18.663Z,24.30
2022-08-23T16:28:12.111Z,24.30
2022-08-23T16:33:07.184Z,24.30
2022-08-23T16:38:02.316Z,24.20
2022-08-23T16:43:08.087Z,24.10
2022-08-23T16:48:01.991Z,24.20
2022-08-23T16:58:04.648Z,24.20
2022-08-23T17:02:59.248Z,24.00
2022-08-23T17:07:54.189Z,23.90
2022-08-23T17:12:54.236Z,23.80
2022-08-23T17:17:49.490Z,23.70
2022-08-23T17:22:43.195Z,23.60
2022-08-23T17:27:36.838Z,23.60
2022-08-23T17:32:30.425Z,23.50
2022-08-23T17:37:25.166Z,23.40
2022-08-23T17:42:19.028Z,23.30
2022-08-23T17:47:16.741Z,23.10
2022-08-23T17:52:11.579Z,23.00
2022-08-23T17:57:06.754Z,22.90
2022-08-23T18:03:12.983Z,22.80
2022-08-23T18:07:53.499Z,22.60
2022-08-23T18:12:48.418Z,22.20
2022-08-23T18:17:42.751Z,22.00
2022-08-23T18:22:47.288Z,21.90
2022-08-23T18:28:36.935Z,21.80
2022-08-23T18:33:47.031Z,21.60
2022-08-23T18:40:23.016Z,21.50
2022-08-23T18:45:25.627Z,21.40
2022-08-23T19:03:57.596Z,20.70
2022-08-23T20:00:08.465Z,19.70
2022-08-23T20:05:39.422Z,19.50
2022-08-23T20:11:18.102Z,19.50
2022-08-23T20:16:13.305Z,19.60
2022-08-23T20:21:07.714Z,19.50
2022-08-23T20:26:01.485Z,19.50
2022-08-23T20:30:55.062Z,19.30
2022-08-23T20:35:49.985Z,19.10
2022-08-23T20:40:45.218Z,19.10
2022-08-23T20:45:38.561Z,19.10
2022-08-23T20:50:35.010Z,19.10
2022-08-23T20:55:29.792Z,19.20
2022-08-23T21:00:23.462Z,19.30
2022-08-23T21:05:17.116Z,19.10
2022-08-23T21:10:11.206Z,18.90
2022-08-23T21:15:10.894Z,18.60
2022-08-23T21:20:08.022Z,18.70
2022-08-23T21:25:02.069Z,18.70
2022-08-23T21:29:55.727Z,18.60
2022-08-23T21:34:50.641Z,18.40
2022-08-23T21:39:44.103Z,18.30
2022-08-23T21:44:39.763Z,18.40
2022-08-23T21:49:35.222Z,18.30
2022-08-23T21:54:29.952Z,18.30
2022-08-23T21:59:23.491Z,18.40
2022-08-23T22:04:17.801Z,18.20
2022-08-23T22:09:15.943Z,18.00
2022-08-23T22:14:14.457Z,18.00
2022-08-23T22:19:08.103Z,17.80
2022-08-23T22:24:01.441Z,17.80
2022-08-23T22:28:54.927Z,17.70
2022-08-23T22:33:49.674Z,17.80
2022-08-23T22:38:44.412Z,17.70
2022-08-23T22:43:38.051Z,17.70
2022-08-23T22:48:35.129Z,17.50
2022-08-23T22:53:30.011Z,17.50
2022-08-23T22:58:23.398Z,17.50
2022-08-23T23:03:16.771Z,17.30
2022-08-23T23:08:29.398Z,17.30
2022-08-23T23:13:28.689Z,17.50
2022-08-23T23:24:44.393Z,17.60
2022-08-23T23:29:38.492Z,17.40
2022-08-23T23:34:32.083Z,17.20
2022-08-23T23:40:34.094Z,16.90
2022-08-23T23:45:55.784Z,17.00
2022-08-23T23:50:49.313Z,17.10
2022-08-23T23:57:10.172Z,17.00
